N181BD KMSY-KBHM
Flight info
| Callsign | N181BD |
|---|---|
| Flight time | 1h 26m |
| Altitude | 17000 |
| Route | PCU V455 MEI/N0258F270 LYMPH |
| Aircraft | BE60/L-SDFGRY/C |
Departure
| Time | 2026-04-20 00:40 |
|---|---|
| Airport | Louis Armstrong New Orleans International Airport (KMSY) |
Arrival
| Time | 2026-04-20 02:06 |
|---|---|
| Airport | Birmingham-Shuttlesworth International Airport (KBHM) |
| Time | Latitude | Longitude | Altitude | Speed | Heading |
|---|---|---|---|---|---|
| 2026-04-20 00:09 | 29.99652 | -90.26460 | 5 ft | 0 kts | 15° |
| 2026-04-20 00:31 | 29.99663 | -90.26452 | 5 ft | 6 kts | 44° |
| 2026-04-20 00:32 | 29.99654 | -90.26386 | 4 ft | 12 kts | 122° |
| 2026-04-20 00:32 | 29.99562 | -90.26370 | 4 ft | 17 kts | 195° |
| 2026-04-20 00:32 | 29.99447 | -90.26323 | 2 ft | 22 kts | 109° |
| 2026-04-20 00:32 | 29.99405 | -90.26142 | 1 ft | 25 kts | 105° |
| 2026-04-20 00:33 | 29.99356 | -90.25940 | -3 ft | 26 kts | 109° |
| 2026-04-20 00:33 | 29.99239 | -90.25820 | -1 ft | 23 kts | 124° |
| 2026-04-20 00:33 | 29.99206 | -90.25634 | -1 ft | 24 kts | 89° |
| 2026-04-20 00:33 | 29.99200 | -90.25446 | 2 ft | 23 kts | 97° |
| 2026-04-20 00:34 | 29.99222 | -90.25353 | 2 ft | 3 kts | 276° |
| 2026-04-20 00:34 | 29.99211 | -90.25394 | 2 ft | 9 kts | 256° |
| 2026-04-20 00:34 | 29.99203 | -90.25491 | 2 ft | 16 kts | 271° |
| 2026-04-20 00:34 | 29.99202 | -90.25638 | -1 ft | 21 kts | 274° |
| 2026-04-20 00:35 | 29.99236 | -90.25815 | -1 ft | 23 kts | 297° |
| 2026-04-20 00:35 | 29.99351 | -90.25935 | -3 ft | 25 kts | 287° |
| 2026-04-20 00:35 | 29.99396 | -90.26130 | 0 ft | 25 kts | 288° |
| 2026-04-20 00:35 | 29.99445 | -90.26327 | 2 ft | 26 kts | 285° |
| 2026-04-20 00:36 | 29.99494 | -90.26531 | 4 ft | 26 kts | 286° |
| 2026-04-20 00:36 | 29.99545 | -90.26739 | 5 ft | 28 kts | 285° |
| 2026-04-20 00:36 | 29.99597 | -90.26954 | 5 ft | 28 kts | 285° |
| 2026-04-20 00:36 | 29.99652 | -90.27184 | 0 ft | 31 kts | 285° |
| 2026-04-20 00:37 | 29.99710 | -90.27423 | -1 ft | 31 kts | 286° |
| 2026-04-20 00:37 | 29.99746 | -90.27623 | -1 ft | 14 kts | 251° |
| 2026-04-20 00:37 | 29.99666 | -90.27682 | -4 ft | 8 kts | 193° |
| 2026-04-20 00:37 | 29.99646 | -90.27688 | -5 ft | 0 kts | 195° |
| 2026-04-20 00:38 | 29.99639 | -90.27690 | -5 ft | 5 kts | 195° |
| 2026-04-20 00:38 | 29.99552 | -90.27685 | -5 ft | 23 kts | 138° |
| 2026-04-20 00:39 | 29.99460 | -90.27306 | -1 ft | 80 kts | 105° |
| 2026-04-20 00:39 | 29.99266 | -90.26526 | 29 ft | 115 kts | 105° |
| 2026-04-20 00:39 | 29.99018 | -90.25589 | 256 ft | 122 kts | 105° |
| 2026-04-20 00:39 | 29.98758 | -90.24615 | 530 ft | 133 kts | 101° |
| 2026-04-20 00:40 | 29.98536 | -90.23551 | 781 ft | 141 kts | 100° |
| 2026-04-20 00:40 | 29.98330 | -90.22458 | 1105 ft | 141 kts | 98° |
| 2026-04-20 00:40 | 29.98121 | -90.21328 | 1297 ft | 151 kts | 98° |
| 2026-04-20 00:40 | 29.98041 | -90.20207 | 1770 ft | 133 kts | 78° |
| 2026-04-20 00:41 | 29.98327 | -90.19253 | 2222 ft | 119 kts | 56° |
| 2026-04-20 00:41 | 29.98827 | -90.18536 | 2660 ft | 114 kts | 37° |
| 2026-04-20 00:41 | 29.99509 | -90.18067 | 3022 ft | 114 kts | 28° |
| 2026-04-20 00:41 | 30.00191 | -90.17637 | 3368 ft | 117 kts | 30° |
| 2026-04-20 00:42 | 30.00938 | -90.17186 | 3618 ft | 123 kts | 27° |
| 2026-04-20 00:42 | 30.01712 | -90.16735 | 3924 ft | 125 kts | 29° |
| 2026-04-20 00:42 | 30.02467 | -90.16263 | 4217 ft | 129 kts | 29° |
| 2026-04-20 00:42 | 30.03286 | -90.15744 | 4417 ft | 136 kts | 30° |
| 2026-04-20 00:43 | 30.04134 | -90.15206 | 4648 ft | 141 kts | 30° |
| 2026-04-20 00:43 | 30.05000 | -90.14656 | 4889 ft | 143 kts | 30° |
| 2026-04-20 00:43 | 30.05866 | -90.14108 | 5127 ft | 145 kts | 30° |
| 2026-04-20 00:43 | 30.06754 | -90.13552 | 5372 ft | 146 kts | 30° |
| 2026-04-20 00:44 | 30.07648 | -90.12993 | 5619 ft | 147 kts | 29° |
| 2026-04-20 00:44 | 30.08547 | -90.12435 | 5861 ft | 147 kts | 30° |
| 2026-04-20 00:44 | 30.09455 | -90.11873 | 6106 ft | 148 kts | 30° |
| 2026-04-20 00:44 | 30.10367 | -90.11309 | 6350 ft | 149 kts | 30° |
| 2026-04-20 00:45 | 30.11287 | -90.10746 | 6594 ft | 150 kts | 30° |
| 2026-04-20 00:45 | 30.12203 | -90.10166 | 6835 ft | 151 kts | 31° |
| 2026-04-20 00:45 | 30.13128 | -90.09593 | 7078 ft | 152 kts | 29° |
| 2026-04-20 00:45 | 30.14063 | -90.09014 | 7320 ft | 152 kts | 29° |
| 2026-04-20 00:46 | 30.14998 | -90.08431 | 7564 ft | 153 kts | 29° |
| 2026-04-20 00:46 | 30.15939 | -90.07843 | 7803 ft | 154 kts | 29° |
| 2026-04-20 00:46 | 30.16884 | -90.07249 | 8044 ft | 155 kts | 29° |
| 2026-04-20 00:46 | 30.17834 | -90.06652 | 8291 ft | 156 kts | 30° |
| 2026-04-20 00:47 | 30.18786 | -90.06049 | 8530 ft | 157 kts | 30° |
| 2026-04-20 00:47 | 30.19745 | -90.05438 | 8774 ft | 157 kts | 30° |
| 2026-04-20 00:47 | 30.20708 | -90.04825 | 9014 ft | 158 kts | 29° |
| 2026-04-20 00:47 | 30.21677 | -90.04207 | 9251 ft | 159 kts | 29° |
| 2026-04-20 00:48 | 30.22646 | -90.03581 | 9501 ft | 160 kts | 29° |
| 2026-04-20 00:48 | 30.23625 | -90.02946 | 9747 ft | 161 kts | 29° |
| 2026-04-20 00:48 | 30.24602 | -90.02304 | 9988 ft | 162 kts | 29° |
| 2026-04-20 00:48 | 30.25580 | -90.01651 | 10228 ft | 163 kts | 29° |
| 2026-04-20 00:49 | 30.26560 | -90.00989 | 10470 ft | 163 kts | 29° |
| 2026-04-20 00:49 | 30.27422 | -90.00138 | 10701 ft | 166 kts | 51° |
| 2026-04-20 00:49 | 30.28202 | -89.99155 | 10932 ft | 166 kts | 39° |
| 2026-04-20 00:49 | 30.29094 | -89.98299 | 11179 ft | 167 kts | 36° |
| 2026-04-20 00:50 | 30.30002 | -89.97456 | 11421 ft | 168 kts | 36° |
| 2026-04-20 00:50 | 30.30916 | -89.96607 | 11658 ft | 169 kts | 36° |
| 2026-04-20 00:50 | 30.31840 | -89.95746 | 11905 ft | 171 kts | 36° |
| 2026-04-20 00:50 | 30.32767 | -89.94882 | 12141 ft | 172 kts | 35° |
| 2026-04-20 00:51 | 30.33701 | -89.94011 | 12384 ft | 173 kts | 35° |
| 2026-04-20 00:51 | 30.34621 | -89.93151 | 12621 ft | 173 kts | 34° |
| 2026-04-20 00:51 | 30.35582 | -89.92265 | 12872 ft | 175 kts | 34° |
| 2026-04-20 00:51 | 30.36517 | -89.91389 | 13113 ft | 176 kts | 34° |
| 2026-04-20 00:52 | 30.37469 | -89.90495 | 13357 ft | 177 kts | 34° |
| 2026-04-20 00:52 | 30.38439 | -89.89589 | 13605 ft | 177 kts | 33° |
| 2026-04-20 00:52 | 30.39395 | -89.88698 | 13846 ft | 177 kts | 33° |
| 2026-04-20 00:52 | 30.40356 | -89.87801 | 14085 ft | 178 kts | 33° |
| 2026-04-20 00:53 | 30.41327 | -89.86896 | 14329 ft | 179 kts | 33° |
| 2026-04-20 00:53 | 30.42286 | -89.86000 | 14572 ft | 180 kts | 32° |
| 2026-04-20 00:53 | 30.43263 | -89.85086 | 14813 ft | 180 kts | 32° |
| 2026-04-20 00:53 | 30.44238 | -89.84173 | 15057 ft | 181 kts | 31° |
| 2026-04-20 00:54 | 30.45219 | -89.83259 | 15296 ft | 181 kts | 31° |
| 2026-04-20 00:54 | 30.46216 | -89.82326 | 15533 ft | 182 kts | 31° |
| 2026-04-20 00:54 | 30.47189 | -89.81416 | 15764 ft | 181 kts | 31° |
| 2026-04-20 00:54 | 30.48167 | -89.80499 | 15983 ft | 180 kts | 30° |
| 2026-04-20 00:55 | 30.49144 | -89.79586 | 16202 ft | 181 kts | 30° |
| 2026-04-20 00:55 | 30.50126 | -89.78667 | 16418 ft | 181 kts | 30° |
| 2026-04-20 00:55 | 30.51106 | -89.77748 | 16630 ft | 182 kts | 30° |
| 2026-04-20 00:55 | 30.52090 | -89.76827 | 16842 ft | 182 kts | 29° |
| 2026-04-20 00:56 | 30.53081 | -89.75899 | 16989 ft | 187 kts | 29° |
| 2026-04-20 00:56 | 30.54126 | -89.74926 | 17000 ft | 197 kts | 30° |
| 2026-04-20 00:56 | 30.55218 | -89.73902 | 17000 ft | 207 kts | 30° |
| 2026-04-20 00:56 | 30.56392 | -89.72927 | 17003 ft | 205 kts | 17° |
| 2026-04-20 00:57 | 30.57723 | -89.72332 | 17004 ft | 207 kts | 13° |
| 2026-04-20 00:57 | 30.59082 | -89.71714 | 17002 ft | 212 kts | 14° |
| 2026-04-20 00:57 | 30.60463 | -89.71077 | 17005 ft | 214 kts | 13° |
| 2026-04-20 00:57 | 30.61858 | -89.70441 | 17011 ft | 216 kts | 13° |
| 2026-04-20 00:58 | 30.63265 | -89.69803 | 17010 ft | 218 kts | 13° |
| 2026-04-20 00:58 | 30.64683 | -89.69159 | 17009 ft | 220 kts | 13° |
| 2026-04-20 00:58 | 30.66112 | -89.68508 | 17008 ft | 221 kts | 13° |
| 2026-04-20 00:58 | 30.67550 | -89.67855 | 17009 ft | 222 kts | 13° |
| 2026-04-20 00:59 | 30.68974 | -89.67207 | 17010 ft | 222 kts | 13° |
| 2026-04-20 00:59 | 30.70418 | -89.66549 | 17009 ft | 223 kts | 14° |
| 2026-04-20 00:59 | 30.71862 | -89.65892 | 17010 ft | 223 kts | 14° |
| 2026-04-20 00:59 | 30.73325 | -89.65226 | 17010 ft | 223 kts | 14° |
| 2026-04-20 01:00 | 30.74756 | -89.64573 | 17011 ft | 223 kts | 14° |
| 2026-04-20 01:00 | 30.76200 | -89.63916 | 17011 ft | 222 kts | 14° |
| 2026-04-20 01:00 | 30.77656 | -89.63253 | 17012 ft | 227 kts | 13° |
| 2026-04-20 01:00 | 30.79137 | -89.62579 | 17016 ft | 230 kts | 14° |
| 2026-04-20 01:01 | 30.80637 | -89.61894 | 17020 ft | 233 kts | 14° |
| 2026-04-20 01:01 | 30.82155 | -89.61201 | 17020 ft | 235 kts | 14° |
| 2026-04-20 01:01 | 30.83686 | -89.60501 | 17024 ft | 237 kts | 14° |
| 2026-04-20 01:01 | 30.85226 | -89.59797 | 17025 ft | 238 kts | 14° |
| 2026-04-20 01:02 | 30.86769 | -89.59093 | 17026 ft | 239 kts | 14° |
| 2026-04-20 01:02 | 30.88318 | -89.58384 | 17028 ft | 240 kts | 14° |
| 2026-04-20 01:02 | 30.89875 | -89.57671 | 17026 ft | 240 kts | 14° |
| 2026-04-20 01:02 | 30.91435 | -89.56958 | 17028 ft | 241 kts | 14° |
| 2026-04-20 01:03 | 30.93000 | -89.56243 | 17028 ft | 241 kts | 14° |
| 2026-04-20 01:03 | 30.94561 | -89.55528 | 17029 ft | 242 kts | 14° |
| 2026-04-20 01:03 | 30.96126 | -89.54812 | 17029 ft | 242 kts | 14° |
| 2026-04-20 01:03 | 30.97696 | -89.54093 | 17029 ft | 242 kts | 14° |
| 2026-04-20 01:04 | 30.99262 | -89.53375 | 17029 ft | 242 kts | 14° |
| 2026-04-20 01:04 | 31.00833 | -89.52655 | 17030 ft | 242 kts | 14° |
| 2026-04-20 01:04 | 31.02403 | -89.51935 | 17030 ft | 243 kts | 14° |
| 2026-04-20 01:04 | 31.03974 | -89.51215 | 17030 ft | 243 kts | 14° |
| 2026-04-20 01:05 | 31.05547 | -89.50493 | 17030 ft | 243 kts | 14° |
| 2026-04-20 01:05 | 31.07121 | -89.49771 | 17031 ft | 243 kts | 14° |
| 2026-04-20 01:05 | 31.08696 | -89.49048 | 17031 ft | 243 kts | 14° |
| 2026-04-20 01:05 | 31.10249 | -89.48334 | 17031 ft | 243 kts | 14° |
| 2026-04-20 01:06 | 31.11824 | -89.47611 | 17032 ft | 243 kts | 14° |
| 2026-04-20 01:06 | 31.13400 | -89.46887 | 17032 ft | 244 kts | 14° |
| 2026-04-20 01:06 | 31.14978 | -89.46162 | 17032 ft | 244 kts | 14° |
| 2026-04-20 01:06 | 31.16561 | -89.45433 | 17032 ft | 244 kts | 14° |
| 2026-04-20 01:07 | 31.18140 | -89.44707 | 17032 ft | 244 kts | 14° |
| 2026-04-20 01:07 | 31.19722 | -89.43979 | 17032 ft | 244 kts | 14° |
| 2026-04-20 01:07 | 31.21300 | -89.43252 | 17033 ft | 244 kts | 14° |
| 2026-04-20 01:07 | 31.22882 | -89.42523 | 17033 ft | 244 kts | 14° |
| 2026-04-20 01:08 | 31.24463 | -89.41795 | 17033 ft | 244 kts | 14° |
| 2026-04-20 01:08 | 31.26042 | -89.41067 | 17032 ft | 244 kts | 14° |
| 2026-04-20 01:08 | 31.27628 | -89.40336 | 17032 ft | 244 kts | 14° |
| 2026-04-20 01:08 | 31.29208 | -89.39607 | 17032 ft | 244 kts | 14° |
| 2026-04-20 01:09 | 31.30795 | -89.38875 | 17032 ft | 245 kts | 14° |
| 2026-04-20 01:09 | 31.32375 | -89.38145 | 17032 ft | 245 kts | 14° |
| 2026-04-20 01:09 | 31.33959 | -89.37414 | 17032 ft | 245 kts | 14° |
| 2026-04-20 01:09 | 31.35542 | -89.36683 | 17033 ft | 244 kts | 14° |
| 2026-04-20 01:10 | 31.37119 | -89.35955 | 17033 ft | 244 kts | 14° |
| 2026-04-20 01:10 | 31.40289 | -89.34488 | 17033 ft | 244 kts | 14° |
| 2026-04-20 01:10 | 31.41847 | -89.33765 | 17033 ft | 245 kts | 15° |
| 2026-04-20 01:11 | 31.43395 | -89.32910 | 17033 ft | 246 kts | 18° |
| 2026-04-20 01:11 | 31.44947 | -89.32057 | 17033 ft | 246 kts | 17° |
| 2026-04-20 01:11 | 31.46498 | -89.31213 | 17033 ft | 246 kts | 17° |
| 2026-04-20 01:11 | 31.48049 | -89.30361 | 17033 ft | 246 kts | 17° |
| 2026-04-20 01:12 | 31.49599 | -89.29507 | 17033 ft | 246 kts | 17° |
| 2026-04-20 01:12 | 31.51150 | -89.28654 | 17033 ft | 246 kts | 17° |
| 2026-04-20 01:12 | 31.52701 | -89.27800 | 17034 ft | 247 kts | 17° |
| 2026-04-20 01:12 | 31.54255 | -89.26944 | 17033 ft | 247 kts | 17° |
| 2026-04-20 01:13 | 31.55806 | -89.26089 | 17034 ft | 247 kts | 17° |
| 2026-04-20 01:13 | 31.57362 | -89.25231 | 17034 ft | 247 kts | 17° |
| 2026-04-20 01:13 | 31.58918 | -89.24373 | 17037 ft | 247 kts | 17° |
| 2026-04-20 01:13 | 31.60476 | -89.23514 | 17034 ft | 247 kts | 17° |
| 2026-04-20 01:14 | 31.62029 | -89.22657 | 17034 ft | 247 kts | 17° |
| 2026-04-20 01:14 | 31.63587 | -89.21796 | 17036 ft | 247 kts | 17° |
| 2026-04-20 01:14 | 31.65144 | -89.20937 | 17034 ft | 247 kts | 17° |
| 2026-04-20 01:14 | 31.66700 | -89.20079 | 17034 ft | 247 kts | 17° |
| 2026-04-20 01:15 | 31.67732 | -89.19511 | 17034 ft | 247 kts | 17° |
| 2026-04-20 01:15 | 31.69288 | -89.18654 | 17034 ft | 247 kts | 17° |
| 2026-04-20 01:15 | 31.70841 | -89.17794 | 17034 ft | 247 kts | 17° |
| 2026-04-20 01:15 | 31.72395 | -89.16934 | 17034 ft | 247 kts | 17° |
| 2026-04-20 01:16 | 31.73946 | -89.16075 | 17034 ft | 247 kts | 17° |
| 2026-04-20 01:16 | 31.75503 | -89.15212 | 17037 ft | 247 kts | 17° |
| 2026-04-20 01:16 | 31.77057 | -89.14352 | 17034 ft | 247 kts | 17° |
| 2026-04-20 01:16 | 31.78613 | -89.13490 | 17034 ft | 247 kts | 17° |
| 2026-04-20 01:17 | 31.80172 | -89.12625 | 17034 ft | 247 kts | 17° |
| 2026-04-20 01:17 | 31.81727 | -89.11763 | 17034 ft | 248 kts | 17° |
| 2026-04-20 01:17 | 31.83285 | -89.10899 | 17035 ft | 248 kts | 17° |
| 2026-04-20 01:17 | 31.84846 | -89.10033 | 17034 ft | 248 kts | 17° |
| 2026-04-20 01:18 | 31.86404 | -89.09168 | 17035 ft | 248 kts | 17° |
| 2026-04-20 01:18 | 31.87961 | -89.08302 | 17034 ft | 247 kts | 17° |
| 2026-04-20 01:18 | 31.89517 | -89.07439 | 17034 ft | 247 kts | 17° |
| 2026-04-20 01:18 | 31.91073 | -89.06572 | 17037 ft | 247 kts | 17° |
| 2026-04-20 01:19 | 31.92627 | -89.05709 | 17035 ft | 247 kts | 17° |
| 2026-04-20 01:19 | 31.94179 | -89.04846 | 17034 ft | 247 kts | 17° |
| 2026-04-20 01:19 | 31.95734 | -89.03981 | 17035 ft | 247 kts | 17° |
| 2026-04-20 01:19 | 31.97292 | -89.03115 | 17037 ft | 247 kts | 17° |
| 2026-04-20 01:20 | 31.98849 | -89.02247 | 17035 ft | 248 kts | 17° |
| 2026-04-20 01:20 | 32.00407 | -89.01378 | 17035 ft | 248 kts | 17° |
| 2026-04-20 01:20 | 32.01962 | -89.00512 | 17036 ft | 248 kts | 17° |
| 2026-04-20 01:20 | 32.03518 | -88.99645 | 17036 ft | 248 kts | 17° |
| 2026-04-20 01:21 | 32.05076 | -88.98776 | 17037 ft | 248 kts | 17° |
| 2026-04-20 01:21 | 32.06638 | -88.97904 | 17036 ft | 248 kts | 17° |
| 2026-04-20 01:21 | 32.08197 | -88.97034 | 17036 ft | 248 kts | 17° |
| 2026-04-20 01:21 | 32.09738 | -88.96173 | 17036 ft | 248 kts | 17° |
| 2026-04-20 01:22 | 32.11298 | -88.95302 | 17036 ft | 248 kts | 17° |
| 2026-04-20 01:22 | 32.12855 | -88.94433 | 17037 ft | 248 kts | 17° |
| 2026-04-20 01:22 | 32.14413 | -88.93562 | 17038 ft | 248 kts | 17° |
| 2026-04-20 01:22 | 32.15976 | -88.92688 | 17036 ft | 248 kts | 17° |
| 2026-04-20 01:23 | 32.17536 | -88.91814 | 17036 ft | 248 kts | 17° |
| 2026-04-20 01:23 | 32.19098 | -88.90941 | 17037 ft | 248 kts | 17° |
| 2026-04-20 01:23 | 32.20656 | -88.90068 | 17036 ft | 248 kts | 17° |
| 2026-04-20 01:23 | 32.22224 | -88.89191 | 17037 ft | 249 kts | 17° |
| 2026-04-20 01:24 | 32.23783 | -88.88317 | 17037 ft | 248 kts | 17° |
| 2026-04-20 01:24 | 32.25347 | -88.87440 | 17036 ft | 248 kts | 17° |
| 2026-04-20 01:24 | 32.26906 | -88.86566 | 17037 ft | 248 kts | 17° |
| 2026-04-20 01:24 | 32.28466 | -88.85692 | 17037 ft | 248 kts | 17° |
| 2026-04-20 01:25 | 32.30025 | -88.84817 | 17037 ft | 248 kts | 17° |
| 2026-04-20 01:25 | 32.31584 | -88.83942 | 17037 ft | 248 kts | 17° |
| 2026-04-20 01:25 | 32.33148 | -88.83064 | 17038 ft | 249 kts | 17° |
| 2026-04-20 01:25 | 32.34711 | -88.82185 | 17038 ft | 249 kts | 17° |
| 2026-04-20 01:26 | 32.36275 | -88.81306 | 17039 ft | 249 kts | 17° |
| 2026-04-20 01:26 | 32.37786 | -88.80281 | 17038 ft | 257 kts | 31° |
| 2026-04-20 01:26 | 32.39024 | -88.78708 | 17041 ft | 265 kts | 44° |
| 2026-04-20 01:26 | 32.40169 | -88.76994 | 17042 ft | 264 kts | 44° |
| 2026-04-20 01:27 | 32.41317 | -88.75298 | 17044 ft | 264 kts | 44° |
| 2026-04-20 01:27 | 32.42469 | -88.73602 | 17044 ft | 264 kts | 44° |
| 2026-04-20 01:27 | 32.43606 | -88.71924 | 17045 ft | 265 kts | 44° |
| 2026-04-20 01:27 | 32.44757 | -88.70222 | 17045 ft | 265 kts | 44° |
| 2026-04-20 01:28 | 32.45908 | -88.68521 | 17046 ft | 265 kts | 44° |
| 2026-04-20 01:28 | 32.47059 | -88.66820 | 17045 ft | 265 kts | 44° |
| 2026-04-20 01:28 | 32.48212 | -88.65113 | 17037 ft | 266 kts | 44° |
| 2026-04-20 01:28 | 32.49369 | -88.63401 | 17035 ft | 265 kts | 44° |
| 2026-04-20 01:29 | 32.50520 | -88.61697 | 17036 ft | 265 kts | 44° |
| 2026-04-20 01:29 | 32.51673 | -88.59987 | 17034 ft | 265 kts | 44° |
| 2026-04-20 01:29 | 32.52824 | -88.58282 | 17036 ft | 265 kts | 44° |
| 2026-04-20 01:29 | 32.53978 | -88.56573 | 17035 ft | 265 kts | 44° |
| 2026-04-20 01:30 | 32.55127 | -88.54865 | 17037 ft | 265 kts | 44° |
| 2026-04-20 01:30 | 32.56277 | -88.53157 | 17035 ft | 265 kts | 44° |
| 2026-04-20 01:30 | 32.57429 | -88.51450 | 17035 ft | 265 kts | 44° |
| 2026-04-20 01:30 | 32.58579 | -88.49743 | 17037 ft | 265 kts | 44° |
| 2026-04-20 01:31 | 32.59727 | -88.48035 | 17035 ft | 265 kts | 44° |
| 2026-04-20 01:31 | 32.60879 | -88.46322 | 17034 ft | 265 kts | 44° |
| 2026-04-20 01:31 | 32.62028 | -88.44614 | 17033 ft | 265 kts | 44° |
| 2026-04-20 01:31 | 32.63176 | -88.42905 | 17034 ft | 265 kts | 44° |
| 2026-04-20 01:32 | 32.64322 | -88.41199 | 17036 ft | 265 kts | 44° |
| 2026-04-20 01:32 | 32.65470 | -88.39489 | 17034 ft | 265 kts | 44° |
| 2026-04-20 01:32 | 32.66617 | -88.37779 | 17034 ft | 265 kts | 44° |
| 2026-04-20 01:32 | 32.67764 | -88.36069 | 17037 ft | 265 kts | 44° |
| 2026-04-20 01:33 | 32.68915 | -88.34354 | 17037 ft | 265 kts | 44° |
| 2026-04-20 01:33 | 32.70062 | -88.32641 | 17034 ft | 265 kts | 44° |
| 2026-04-20 01:33 | 32.71191 | -88.30953 | 17036 ft | 265 kts | 44° |
| 2026-04-20 01:33 | 32.72340 | -88.29238 | 17034 ft | 265 kts | 44° |
| 2026-04-20 01:34 | 32.73487 | -88.27525 | 17034 ft | 265 kts | 44° |
| 2026-04-20 01:34 | 32.74632 | -88.25813 | 17034 ft | 265 kts | 44° |
| 2026-04-20 01:34 | 32.75777 | -88.24100 | 17034 ft | 265 kts | 44° |
| 2026-04-20 01:34 | 32.76924 | -88.22383 | 17036 ft | 265 kts | 44° |
| 2026-04-20 01:35 | 32.78069 | -88.20670 | 17034 ft | 265 kts | 44° |
| 2026-04-20 01:35 | 32.79219 | -88.18949 | 16992 ft | 267 kts | 44° |
| 2026-04-20 01:35 | 32.80375 | -88.17216 | 16837 ft | 268 kts | 44° |
| 2026-04-20 01:35 | 32.81531 | -88.15482 | 16685 ft | 268 kts | 44° |
| 2026-04-20 01:36 | 32.82684 | -88.13751 | 16528 ft | 267 kts | 44° |
| 2026-04-20 01:36 | 32.83839 | -88.12019 | 16376 ft | 266 kts | 44° |
| 2026-04-20 01:36 | 32.84990 | -88.10291 | 16222 ft | 266 kts | 44° |
| 2026-04-20 01:36 | 32.86136 | -88.08568 | 16072 ft | 265 kts | 44° |
| 2026-04-20 01:37 | 32.87275 | -88.06856 | 15919 ft | 264 kts | 44° |
| 2026-04-20 01:37 | 32.88412 | -88.05148 | 15772 ft | 263 kts | 45° |
| 2026-04-20 01:37 | 32.89530 | -88.03465 | 15623 ft | 261 kts | 45° |
| 2026-04-20 01:37 | 32.90655 | -88.01773 | 15472 ft | 260 kts | 45° |
| 2026-04-20 01:38 | 32.91778 | -88.00084 | 15327 ft | 259 kts | 45° |
| 2026-04-20 01:38 | 32.92892 | -87.98405 | 15176 ft | 258 kts | 45° |
| 2026-04-20 01:38 | 32.94008 | -87.96723 | 15025 ft | 258 kts | 45° |
| 2026-04-20 01:38 | 32.95114 | -87.95055 | 14867 ft | 256 kts | 45° |
| 2026-04-20 01:39 | 32.96220 | -87.93389 | 14736 ft | 255 kts | 45° |
| 2026-04-20 01:39 | 32.97318 | -87.91731 | 14590 ft | 255 kts | 45° |
| 2026-04-20 01:39 | 32.98411 | -87.90084 | 14439 ft | 253 kts | 45° |
| 2026-04-20 01:39 | 32.99498 | -87.88438 | 14290 ft | 252 kts | 45° |
| 2026-04-20 01:40 | 33.00585 | -87.86796 | 14145 ft | 251 kts | 45° |
| 2026-04-20 01:40 | 33.01665 | -87.85165 | 14002 ft | 251 kts | 45° |
| 2026-04-20 01:40 | 33.02741 | -87.83538 | 13853 ft | 250 kts | 45° |
| 2026-04-20 01:40 | 33.03816 | -87.81910 | 13703 ft | 249 kts | 45° |
| 2026-04-20 01:41 | 33.04883 | -87.80297 | 13556 ft | 248 kts | 45° |
| 2026-04-20 01:41 | 33.05948 | -87.78685 | 13410 ft | 247 kts | 45° |
| 2026-04-20 01:41 | 33.07004 | -87.77083 | 13259 ft | 246 kts | 45° |
| 2026-04-20 01:41 | 33.08060 | -87.75483 | 13109 ft | 244 kts | 45° |
| 2026-04-20 01:42 | 33.09108 | -87.73894 | 12968 ft | 244 kts | 45° |
| 2026-04-20 01:42 | 33.10153 | -87.72310 | 12821 ft | 243 kts | 45° |
| 2026-04-20 01:42 | 33.11197 | -87.70727 | 12673 ft | 242 kts | 45° |
| 2026-04-20 01:42 | 33.12233 | -87.69154 | 12535 ft | 241 kts | 45° |
| 2026-04-20 01:43 | 33.13266 | -87.67585 | 12385 ft | 240 kts | 45° |
| 2026-04-20 01:43 | 33.14294 | -87.66021 | 12234 ft | 239 kts | 45° |
| 2026-04-20 01:43 | 33.15317 | -87.64465 | 12093 ft | 238 kts | 45° |
| 2026-04-20 01:43 | 33.16338 | -87.62913 | 11948 ft | 238 kts | 45° |
| 2026-04-20 01:44 | 33.17359 | -87.61358 | 11800 ft | 237 kts | 45° |
| 2026-04-20 01:44 | 33.18377 | -87.59810 | 11656 ft | 236 kts | 45° |
| 2026-04-20 01:44 | 33.19390 | -87.58270 | 11515 ft | 236 kts | 45° |
| 2026-04-20 01:44 | 33.20397 | -87.56735 | 11376 ft | 235 kts | 45° |
| 2026-04-20 01:45 | 33.21402 | -87.55204 | 11234 ft | 234 kts | 46° |
| 2026-04-20 01:45 | 33.22401 | -87.53680 | 11112 ft | 232 kts | 46° |
| 2026-04-20 01:45 | 33.23394 | -87.52167 | 10959 ft | 231 kts | 46° |
| 2026-04-20 01:45 | 33.24383 | -87.50658 | 10814 ft | 230 kts | 46° |
| 2026-04-20 01:46 | 33.25366 | -87.49156 | 10659 ft | 229 kts | 46° |
| 2026-04-20 01:46 | 33.26343 | -87.47664 | 10525 ft | 227 kts | 46° |
| 2026-04-20 01:46 | 33.27317 | -87.46177 | 10392 ft | 226 kts | 46° |
| 2026-04-20 01:46 | 33.28280 | -87.44705 | 10255 ft | 224 kts | 46° |
| 2026-04-20 01:47 | 33.29224 | -87.43261 | 10119 ft | 223 kts | 46° |
| 2026-04-20 01:47 | 33.30180 | -87.41802 | 9981 ft | 222 kts | 47° |
| 2026-04-20 01:47 | 33.31127 | -87.40351 | 9851 ft | 221 kts | 47° |
| 2026-04-20 01:47 | 33.32071 | -87.38907 | 9711 ft | 220 kts | 47° |
| 2026-04-20 01:48 | 33.33015 | -87.37462 | 9524 ft | 222 kts | 47° |
| 2026-04-20 01:48 | 33.33978 | -87.35986 | 9198 ft | 227 kts | 47° |
| 2026-04-20 01:48 | 33.34949 | -87.34497 | 8773 ft | 224 kts | 47° |
| 2026-04-20 01:48 | 33.35891 | -87.33049 | 8346 ft | 219 kts | 47° |
| 2026-04-20 01:49 | 33.36818 | -87.31627 | 7934 ft | 214 kts | 47° |
| 2026-04-20 01:49 | 33.37628 | -87.30220 | 7889 ft | 200 kts | 59° |
| 2026-04-20 01:49 | 33.38127 | -87.28717 | 7885 ft | 188 kts | 62° |
| 2026-04-20 01:49 | 33.38616 | -87.27313 | 7885 ft | 179 kts | 61° |
| 2026-04-20 01:50 | 33.39088 | -87.25961 | 7885 ft | 173 kts | 62° |
| 2026-04-20 01:50 | 33.39544 | -87.24640 | 7887 ft | 175 kts | 61° |
| 2026-04-20 01:50 | 33.40019 | -87.23268 | 7888 ft | 180 kts | 62° |
| 2026-04-20 01:50 | 33.40497 | -87.21872 | 7892 ft | 182 kts | 62° |
| 2026-04-20 01:51 | 33.40979 | -87.20464 | 7896 ft | 184 kts | 62° |
| 2026-04-20 01:51 | 33.41468 | -87.19042 | 7898 ft | 185 kts | 62° |
| 2026-04-20 01:51 | 33.41960 | -87.17609 | 7903 ft | 187 kts | 62° |
| 2026-04-20 01:51 | 33.42455 | -87.16159 | 7826 ft | 191 kts | 62° |
| 2026-04-20 01:52 | 33.42972 | -87.14654 | 7575 ft | 199 kts | 62° |
| 2026-04-20 01:52 | 33.43499 | -87.13106 | 7289 ft | 201 kts | 62° |
| 2026-04-20 01:52 | 33.44032 | -87.11551 | 7022 ft | 202 kts | 62° |
| 2026-04-20 01:52 | 33.44555 | -87.10016 | 6757 ft | 202 kts | 62° |
| 2026-04-20 01:53 | 33.44866 | -87.08369 | 6468 ft | 211 kts | 88° |
| 2026-04-20 01:53 | 33.44343 | -87.06712 | 6169 ft | 220 kts | 124° |
| 2026-04-20 01:53 | 33.43150 | -87.05540 | 5890 ft | 223 kts | 144° |
| 2026-04-20 01:53 | 33.41829 | -87.04576 | 5623 ft | 221 kts | 146° |
| 2026-04-20 01:54 | 33.40516 | -87.03636 | 5346 ft | 219 kts | 146° |
| 2026-04-20 01:54 | 33.39213 | -87.02704 | 5070 ft | 218 kts | 146° |
| 2026-04-20 01:54 | 33.37912 | -87.01777 | 4799 ft | 217 kts | 146° |
| 2026-04-20 01:54 | 33.36622 | -87.00857 | 4525 ft | 216 kts | 146° |
| 2026-04-20 01:55 | 33.35335 | -86.99944 | 4249 ft | 214 kts | 146° |
| 2026-04-20 01:55 | 33.34052 | -86.99030 | 3980 ft | 213 kts | 146° |
| 2026-04-20 01:55 | 33.32787 | -86.98127 | 3703 ft | 212 kts | 146° |
| 2026-04-20 01:55 | 33.31783 | -86.96936 | 3395 ft | 204 kts | 112° |
| 2026-04-20 01:56 | 33.31555 | -86.95330 | 3087 ft | 190 kts | 74° |
| 2026-04-20 01:56 | 33.32168 | -86.94052 | 2985 ft | 169 kts | 35° |
| 2026-04-20 01:56 | 33.33100 | -86.93317 | 2983 ft | 158 kts | 27° |
| 2026-04-20 01:56 | 33.34024 | -86.92645 | 2977 ft | 154 kts | 27° |
| 2026-04-20 01:57 | 33.34926 | -86.91990 | 2977 ft | 150 kts | 27° |
| 2026-04-20 01:57 | 33.35808 | -86.91365 | 3004 ft | 143 kts | 24° |
| 2026-04-20 01:57 | 33.36706 | -86.90916 | 3060 ft | 133 kts | 15° |
| 2026-04-20 01:57 | 33.37583 | -86.90604 | 3085 ft | 127 kts | 12° |
| 2026-04-20 01:58 | 33.38387 | -86.90390 | 2967 ft | 113 kts | 8° |
| 2026-04-20 01:58 | 33.39134 | -86.90215 | 2887 ft | 105 kts | 7° |
| 2026-04-20 01:58 | 33.39825 | -86.90040 | 2779 ft | 97 kts | 6° |
| 2026-04-20 01:58 | 33.40473 | -86.89914 | 2708 ft | 96 kts | 359° |
| 2026-04-20 01:59 | 33.41152 | -86.89802 | 2600 ft | 100 kts | 358° |
| 2026-04-20 01:59 | 33.41816 | -86.89740 | 2594 ft | 94 kts | 358° |
| 2026-04-20 01:59 | 33.42496 | -86.89708 | 2556 ft | 98 kts | 353° |
| 2026-04-20 01:59 | 33.43158 | -86.89634 | 2586 ft | 98 kts | 2° |
| 2026-04-20 02:00 | 33.43841 | -86.89495 | 2542 ft | 102 kts | 5° |
| 2026-04-20 02:00 | 33.44528 | -86.89303 | 2544 ft | 99 kts | 7° |
| 2026-04-20 02:00 | 33.45204 | -86.89109 | 2497 ft | 103 kts | 7° |
| 2026-04-20 02:00 | 33.45894 | -86.88909 | 2509 ft | 101 kts | 8° |
| 2026-04-20 02:01 | 33.46559 | -86.88679 | 2527 ft | 98 kts | 9° |
| 2026-04-20 02:01 | 33.47227 | -86.88406 | 2488 ft | 104 kts | 15° |
| 2026-04-20 02:01 | 33.47875 | -86.88072 | 2437 ft | 103 kts | 20° |
| 2026-04-20 02:01 | 33.48527 | -86.87672 | 2349 ft | 107 kts | 26° |
| 2026-04-20 02:02 | 33.49168 | -86.87245 | 2284 ft | 106 kts | 28° |
| 2026-04-20 02:02 | 33.49588 | -86.86944 | 2231 ft | 105 kts | 31° |
| 2026-04-20 02:02 | 33.50182 | -86.86442 | 2155 ft | 105 kts | 40° |
| 2026-04-20 02:02 | 33.50699 | -86.85843 | 2085 ft | 102 kts | 51° |
| 2026-04-20 02:03 | 33.51125 | -86.85187 | 2019 ft | 96 kts | 55° |
| 2026-04-20 02:03 | 33.51459 | -86.84513 | 1902 ft | 97 kts | 60° |
| 2026-04-20 02:03 | 33.51781 | -86.83802 | 1830 ft | 96 kts | 64° |
| 2026-04-20 02:03 | 33.52093 | -86.83096 | 1727 ft | 97 kts | 59° |
| 2026-04-20 02:04 | 33.52455 | -86.82424 | 1632 ft | 96 kts | 56° |
| 2026-04-20 02:04 | 33.52821 | -86.81751 | 1523 ft | 95 kts | 58° |
| 2026-04-20 02:04 | 33.53181 | -86.81082 | 1401 ft | 96 kts | 56° |
| 2026-04-20 02:04 | 33.53582 | -86.80447 | 1274 ft | 96 kts | 52° |
| 2026-04-20 02:05 | 33.53982 | -86.79812 | 1170 ft | 94 kts | 52° |
| 2026-04-20 02:05 | 33.54369 | -86.79174 | 1044 ft | 95 kts | 56° |
| 2026-04-20 02:05 | 33.54732 | -86.78514 | 926 ft | 95 kts | 56° |
| 2026-04-20 02:05 | 33.55091 | -86.77854 | 806 ft | 95 kts | 57° |
| 2026-04-20 02:06 | 33.55457 | -86.77202 | 677 ft | 94 kts | 56° |
| 2026-04-20 02:06 | 33.55795 | -86.76605 | 624 ft | 72 kts | 55° |
| 2026-04-20 02:06 | 33.55989 | -86.76307 | 626 ft | 30 kts | 16° |
| 2026-04-20 02:06 | 33.56012 | -86.76417 | 628 ft | 17 kts | 248° |
| 2026-04-20 02:07 | 33.56009 | -86.76440 | 619 ft | 0 kts | 278° |
| 2026-04-20 02:07 | 33.56015 | -86.76463 | 618 ft | 7 kts | 296° |
| 2026-04-20 02:07 | 33.56033 | -86.76543 | 617 ft | 16 kts | 233° |
| 2026-04-20 02:07 | 33.55967 | -86.76662 | 616 ft | 9 kts | 267° |
| 2026-04-20 02:08 | 33.55988 | -86.76679 | 613 ft | 5 kts | 301° |
| 2026-04-20 02:08 | 33.55964 | -86.76735 | 612 ft | 10 kts | 228° |
| 2026-04-20 02:08 | 33.55929 | -86.76769 | 613 ft | 0 kts | 182° |
| 2026-04-20 02:10 | 33.55916 | -86.76769 | 621 ft | 8 kts | 184° |
| 2026-04-20 02:10 | 33.55851 | -86.76857 | 613 ft | 23 kts | 235° |
| 2026-04-20 02:10 | 33.55764 | -86.77008 | 612 ft | 20 kts | 235° |
| 2026-04-20 02:10 | 33.55747 | -86.77103 | 608 ft | 0 kts | 328° |
| 2026-04-20 02:11 | 33.55749 | -86.77104 | 608 ft | 1 kts | 329° |
| 2026-04-20 02:11 | 33.55750 | -86.77105 | 608 ft | 1 kts | 329° |
| 2026-04-20 02:12 | 33.55749 | -86.77156 | 619 ft | 12 kts | 237° |
| 2026-04-20 02:12 | 33.55656 | -86.77206 | 611 ft | 18 kts | 193° |
| 2026-04-20 02:12 | 33.55548 | -86.77196 | 609 ft | 20 kts | 142° |
| 2026-04-20 02:12 | 33.55531 | -86.77057 | 612 ft | 16 kts | 72° |
| 2026-04-20 02:13 | 33.55481 | -86.76943 | 621 ft | 18 kts | 145° |
| 2026-04-20 02:13 | 33.55419 | -86.76884 | 614 ft | 5 kts | 181° |
| 2026-04-20 02:13 | 33.55385 | -86.76885 | 610 ft | 0 kts | 184° |